createdAt,value
2022-11-20T00:00:55.152Z,2.95
2022-11-20T00:03:22.254Z,2.96
2022-11-20T00:05:49.079Z,2.91
2022-11-20T00:08:15.878Z,2.86
2022-11-20T00:10:50.254Z,2.87
2022-11-20T00:13:17.062Z,2.85
2022-11-20T00:15:43.821Z,2.90
2022-11-20T00:18:10.560Z,2.90
2022-11-20T00:20:37.296Z,2.89
2022-11-20T00:23:04.145Z,2.98
2022-11-20T00:25:31.600Z,3.00
2022-11-20T00:27:59.374Z,3.03
2022-11-20T00:30:26.090Z,3.10
2022-11-20T00:32:52.899Z,3.15
2022-11-20T00:35:19.647Z,3.28
2022-11-20T00:37:46.427Z,3.17
2022-11-20T00:40:13.689Z,3.19
2022-11-20T00:42:40.883Z,3.18
2022-11-20T00:45:08.119Z,3.15
2022-11-20T00:47:34.910Z,3.15
2022-11-20T00:50:02.687Z,3.15
2022-11-20T00:52:29.979Z,3.20
2022-11-20T00:54:56.735Z,3.26
2022-11-20T00:57:23.552Z,3.33
2022-11-20T00:59:50.408Z,3.41
2022-11-20T01:02:17.509Z,3.53
2022-11-20T01:04:44.470Z,3.51
2022-11-20T01:07:11.388Z,3.44
2022-11-20T01:09:38.204Z,3.48
2022-11-20T01:12:05.140Z,3.55
2022-11-20T01:14:31.974Z,3.45
2022-11-20T01:16:58.780Z,3.46
2022-11-20T01:19:25.911Z,3.40
2022-11-20T01:21:54.747Z,3.34
2022-11-20T01:24:22.795Z,3.43
2022-11-20T01:26:51.514Z,3.42
2022-11-20T01:29:24.429Z,3.46
2022-11-20T01:31:53.640Z,3.18
2022-11-20T01:34:21.871Z,3.43
2022-11-20T01:36:49.750Z,3.42
2022-11-20T01:39:22.609Z,3.34
2022-11-20T01:42:10.575Z,3.22
2022-11-20T01:44:58.609Z,3.22
2022-11-20T01:47:43.638Z,3.18
2022-11-20T01:50:26.220Z,3.15
2022-11-20T01:52:57.814Z,3.19
2022-11-20T01:55:30.531Z,3.21
2022-11-20T01:57:57.662Z,3.25
2022-11-20T02:00:24.806Z,3.29
2022-11-20T02:02:59.695Z,3.35
2022-11-20T02:05:34.471Z,3.39
2022-11-20T02:08:01.515Z,3.44
2022-11-20T02:10:29.495Z,3.46
2022-11-20T02:13:16.306Z,3.62
2022-11-20T02:15:43.433Z,3.48
2022-11-20T02:18:12.480Z,3.42
2022-11-20T02:20:42.855Z,3.47
2022-11-20T02:23:57.167Z,3.44
2022-11-20T02:26:26.559Z,3.48
2022-11-20T02:28:53.471Z,3.55
2022-11-20T02:31:20.195Z,3.57
2022-11-20T02:33:46.959Z,3.62
2022-11-20T02:36:17.514Z,3.61
2022-11-20T02:38:45.050Z,3.72
2022-11-20T02:41:11.810Z,3.84
2022-11-20T02:43:38.548Z,3.84
2022-11-20T02:46:07.938Z,3.92
2022-11-20T02:48:36.514Z,4.00
2022-11-20T02:51:03.548Z,4.07
2022-11-20T02:53:30.332Z,4.07
2022-11-20T02:55:57.388Z,4.07
2022-11-20T02:58:24.197Z,4.03
2022-11-20T03:00:51.242Z,4.03
2022-11-20T03:03:18.159Z,4.03
2022-11-20T03:05:44.914Z,3.91
2022-11-20T03:08:11.704Z,3.93
2022-11-20T03:10:38.554Z,3.88
2022-11-20T03:13:05.378Z,3.81
2022-11-20T03:15:32.107Z,3.84
2022-11-20T03:17:58.890Z,3.75
2022-11-20T03:20:25.684Z,3.78
2022-11-20T03:22:54.573Z,3.83
2022-11-20T03:25:21.363Z,3.88
2022-11-20T03:27:48.166Z,3.94
2022-11-20T03:30:16.290Z,4.05
2022-11-20T03:32:43.293Z,4.11
2022-11-20T03:35:10.606Z,3.96
2022-11-20T03:37:37.766Z,3.84
2022-11-20T03:40:05.398Z,3.82
2022-11-20T03:42:47.439Z,3.91
2022-11-20T03:45:19.048Z,3.99
2022-11-20T03:47:46.514Z,3.98
2022-11-20T03:50:14.986Z,4.01
2022-11-20T03:52:42.200Z,4.07
2022-11-20T03:55:09.752Z,4.08
2022-11-20T03:57:36.647Z,4.17
2022-11-20T04:00:04.390Z,4.23
2022-11-20T04:02:31.367Z,4.21
2022-11-20T04:04:58.195Z,4.13
2022-11-20T04:07:25.024Z,4.07
2022-11-20T04:09:51.768Z,4.02
2022-11-20T04:12:18.561Z,4.06
2022-11-20T04:14:45.289Z,4.12
2022-11-20T04:17:12.126Z,4.11
2022-11-20T04:19:38.897Z,4.07
2022-11-20T04:22:05.621Z,4.13
2022-11-20T04:24:32.492Z,4.19
2022-11-20T04:26:59.228Z,4.16
2022-11-20T04:29:25.986Z,4.03
2022-11-20T04:31:52.778Z,3.95
2022-11-20T04:34:19.546Z,3.98
2022-11-20T04:36:46.336Z,4.07
2022-11-20T04:39:16.001Z,4.11
2022-11-20T04:41:46.096Z,4.17
2022-11-20T04:44:12.970Z,4.26
2022-11-20T04:46:43.213Z,4.21
2022-11-20T04:49:11.871Z,4.05
2022-11-20T04:51:38.784Z,4.02
2022-11-20T04:54:05.738Z,3.93
2022-11-20T04:56:32.547Z,3.81
2022-11-20T04:59:02.816Z,3.81
2022-11-20T05:01:29.843Z,3.83
2022-11-20T05:03:56.614Z,3.87
2022-11-20T05:06:23.534Z,3.88
2022-11-20T05:08:51.785Z,3.87
2022-11-20T05:11:21.420Z,3.77
2022-11-20T05:13:48.974Z,3.66
2022-11-20T05:16:21.660Z,3.60
2022-11-20T05:18:49.186Z,3.67
2022-11-20T05:21:16.717Z,3.74
2022-11-20T05:23:44.743Z,3.86
2022-11-20T05:26:20.739Z,3.92
2022-11-20T05:28:48.041Z,4.08
2022-11-20T05:31:21.947Z,4.06
2022-11-20T05:33:50.655Z,3.98
2022-11-20T05:36:17.829Z,3.92
2022-11-20T05:38:45.746Z,3.94
2022-11-20T05:41:17.532Z,4.00
2022-11-20T05:43:46.435Z,4.03
2022-11-20T05:46:16.340Z,4.03
2022-11-20T05:48:45.304Z,4.01
2022-11-20T05:51:15.470Z,4.01
2022-11-20T05:53:48.069Z,4.01
2022-11-20T05:56:17.938Z,4.01
2022-11-20T05:58:45.784Z,4.01
2022-11-20T06:01:24.645Z,3.79
2022-11-20T06:03:52.134Z,3.80
2022-11-20T06:06:20.514Z,3.78
2022-11-20T06:08:48.209Z,3.74
2022-11-20T06:11:18.499Z,3.77
2022-11-20T06:13:45.705Z,3.83
2022-11-20T06:16:14.440Z,3.85
2022-11-20T06:18:41.310Z,3.90
2022-11-20T06:21:13.624Z,3.96
2022-11-20T06:23:40.945Z,3.96
2022-11-20T06:26:10.243Z,4.02
2022-11-20T06:28:37.191Z,4.05
2022-11-20T06:31:04.987Z,4.14
2022-11-20T06:33:32.243Z,4.20
2022-11-20T06:36:04.479Z,4.25
2022-11-20T06:38:35.248Z,4.24
2022-11-20T06:41:02.048Z,4.30
2022-11-20T06:43:30.932Z,4.32
2022-11-20T06:45:59.735Z,4.35
2022-11-20T06:48:28.818Z,4.30
2022-11-20T06:50:55.836Z,4.32
2022-11-20T06:53:24.087Z,4.35
2022-11-20T06:55:52.032Z,4.37
2022-11-20T06:58:19.947Z,4.39
2022-11-20T07:00:47.332Z,4.44
2022-11-20T07:03:16.319Z,4.44
2022-11-20T07:05:43.697Z,4.52
2022-11-20T07:08:10.595Z,4.56
2022-11-20T07:10:37.421Z,4.56
2022-11-20T07:13:04.293Z,4.58
2022-11-20T07:15:31.660Z,4.60
2022-11-20T07:18:01.048Z,4.59
2022-11-20T07:20:29.179Z,4.61
2022-11-20T07:22:59.433Z,4.61
2022-11-20T07:25:27.683Z,4.64
2022-11-20T07:27:57.938Z,4.67
2022-11-20T07:30:24.855Z,4.63
2022-11-20T07:32:56.385Z,4.64
2022-11-20T07:35:24.768Z,4.65
2022-11-20T07:37:51.810Z,4.66
2022-11-20T07:40:19.677Z,4.68
2022-11-20T07:42:55.189Z,4.69
2022-11-20T07:45:23.574Z,4.70
2022-11-20T07:47:52.572Z,4.70
2022-11-20T07:50:20.658Z,4.71
2022-11-20T07:52:47.485Z,4.71
2022-11-20T07:55:14.697Z,4.69
2022-11-20T07:57:41.968Z,4.71
2022-11-20T08:00:10.917Z,4.73
2022-11-20T08:02:41.456Z,4.76
2022-11-20T08:05:12.342Z,4.80
2022-11-20T08:07:40.470Z,4.78
2022-11-20T08:10:08.508Z,4.75
2022-11-20T08:12:54.105Z,4.75
2022-11-20T08:15:21.080Z,4.81
2022-11-20T08:18:08.444Z,4.87
2022-11-20T08:20:36.535Z,4.90
2022-11-20T08:23:06.629Z,4.98
2022-11-20T08:25:34.962Z,5.04
2022-11-20T08:28:15.681Z,5.11
2022-11-20T08:30:47.054Z,5.18
2022-11-20T08:33:13.863Z,5.15
2022-11-20T08:35:42.147Z,5.09
2022-11-20T08:38:09.720Z,5.09
2022-11-20T08:40:36.571Z,5.26
2022-11-20T08:43:03.528Z,5.46
2022-11-20T08:45:34.104Z,5.68
2022-11-20T08:48:03.637Z,5.80
2022-11-20T08:50:33.605Z,5.87
2022-11-20T08:53:07.801Z,5.87
2022-11-20T08:55:36.814Z,5.95
2022-11-20T08:58:07.571Z,5.90
2022-11-20T09:00:35.386Z,5.95
2022-11-20T09:03:03.046Z,5.94
2022-11-20T09:05:32.716Z,5.91
2022-11-20T09:08:01.939Z,5.92
2022-11-20T09:10:30.917Z,5.90
2022-11-20T09:12:59.019Z,6.02
2022-11-20T09:15:26.987Z,6.03
2022-11-20T09:18:05.700Z,5.99
2022-11-20T09:20:32.838Z,6.17
2022-11-20T09:23:00.229Z,6.29
2022-11-20T09:25:28.018Z,6.39
2022-11-20T09:28:00.021Z,6.55
2022-11-20T09:30:27.467Z,6.67
2022-11-20T09:32:54.887Z,6.62
2022-11-20T09:35:21.671Z,6.55
2022-11-20T09:37:50.004Z,6.62
2022-11-20T09:40:26.539Z,6.66
2022-11-20T09:43:44.130Z,6.73
2022-11-20T09:46:39.336Z,7.05
2022-11-20T09:49:15.384Z,7.22
2022-11-20T09:51:58.257Z,7.29
2022-11-20T09:54:32.798Z,7.34
2022-11-20T09:57:06.745Z,7.41
2022-11-20T09:59:51.496Z,7.59
2022-11-20T10:02:46.637Z,7.59
2022-11-20T10:05:38.228Z,7.60
2022-11-20T10:08:32.938Z,7.53
2022-11-20T10:11:15.437Z,7.69
2022-11-20T10:13:53.653Z,7.60
2022-11-20T10:16:40.555Z,7.41
2022-11-20T10:19:38.837Z,7.27
2022-11-20T10:22:26.479Z,7.13
2022-11-20T10:25:04.953Z,7.04
2022-11-20T10:27:40.984Z,6.91
2022-11-20T10:30:15.171Z,6.79
2022-11-20T10:32:44.948Z,6.58
2022-11-20T10:35:35.558Z,6.41
2022-11-20T10:38:06.522Z,6.47
2022-11-20T10:40:41.099Z,6.48
2022-11-20T10:43:17.319Z,6.53
2022-11-20T10:46:06.309Z,6.48
2022-11-20T10:48:33.546Z,6.62
2022-11-20T10:51:18.890Z,6.72
2022-11-20T10:54:13.855Z,6.66
2022-11-20T10:56:48.346Z,6.80
2022-11-20T11:00:10.280Z,6.74
2022-11-20T11:02:47.225Z,6.84
2022-11-20T11:05:43.964Z,6.87
2022-11-20T11:08:19.267Z,6.89
2022-11-20T11:10:54.278Z,7.08
2022-11-20T11:13:31.754Z,7.13
2022-11-20T11:15:59.530Z,7.23
2022-11-20T11:18:31.886Z,7.26
2022-11-20T11:21:01.075Z,7.31
2022-11-20T11:23:42.767Z,7.19
2022-11-20T11:26:21.818Z,7.18
2022-11-20T11:29:04.331Z,7.17
2022-11-20T11:31:35.521Z,7.26
2022-11-20T11:34:12.784Z,7.33
2022-11-20T11:36:39.743Z,7.24
2022-11-20T11:39:19.940Z,7.14
2022-11-20T11:41:48.003Z,7.07
2022-11-20T11:44:48.744Z,7.05
2022-11-20T11:47:27.998Z,7.06
2022-11-20T11:50:09.903Z,7.11
2022-11-20T11:53:10.149Z,7.07
2022-11-20T11:55:51.946Z,7.17
2022-11-20T11:58:22.305Z,7.18
2022-11-20T12:01:19.499Z,7.13
2022-11-20T12:04:05.374Z,7.12
2022-11-20T12:06:33.991Z,7.13
2022-11-20T12:09:06.536Z,7.09
2022-11-20T12:11:53.544Z,7.11
2022-11-20T12:14:44.406Z,7.11
2022-11-20T12:17:15.239Z,7.18
2022-11-20T12:19:43.196Z,7.28
2022-11-20T12:22:25.102Z,7.29
2022-11-20T12:24:52.118Z,7.44
2022-11-20T12:27:29.048Z,7.49
2022-11-20T12:30:12.103Z,7.48
2022-11-20T12:33:08.714Z,7.40
2022-11-20T12:36:17.627Z,7.16
2022-11-20T12:39:09.983Z,7.07
2022-11-20T12:42:29.664Z,7.06
2022-11-20T12:45:12.450Z,7.02
2022-11-20T12:48:41.075Z,6.77
2022-11-20T12:51:16.509Z,6.82
2022-11-20T12:53:55.199Z,6.72
2022-11-20T12:56:40.901Z,6.68
2022-11-20T13:00:05.762Z,6.72
2022-11-20T13:03:17.862Z,6.79
2022-11-20T13:05:50.573Z,6.91
2022-11-20T13:08:44.566Z,6.94
2022-11-20T13:11:25.017Z,6.96
2022-11-20T13:14:17.027Z,6.98
2022-11-20T13:17:04.745Z,7.12
2022-11-20T13:19:33.834Z,7.14
2022-11-20T13:22:00.721Z,7.15
2022-11-20T13:24:31.299Z,7.13
2022-11-20T13:27:01.930Z,7.19
2022-11-20T13:29:29.635Z,7.28
2022-11-20T13:32:14.792Z,7.28
2022-11-20T13:34:53.568Z,7.32
2022-11-20T13:37:38.670Z,7.16
2022-11-20T13:40:11.593Z,7.13
2022-11-20T13:42:53.947Z,7.15
2022-11-20T13:45:27.522Z,7.27
2022-11-20T13:47:56.371Z,7.39
2022-11-20T13:50:46.918Z,7.34
2022-11-20T13:53:35.328Z,7.45
2022-11-20T13:56:20.386Z,7.50
2022-11-20T13:59:14.883Z,7.53
2022-11-20T14:01:45.064Z,7.62
2022-11-20T14:04:21.508Z,7.58
2022-11-20T14:06:50.750Z,7.52
2022-11-20T14:09:29.332Z,7.45
2022-11-20T14:11:56.607Z,7.39
2022-11-20T14:14:26.573Z,7.31
2022-11-20T14:17:05.484Z,7.28
2022-11-20T14:19:32.573Z,7.22
2022-11-20T14:22:10.256Z,7.18
2022-11-20T14:24:37.327Z,7.24
2022-11-20T14:27:04.563Z,7.25
2022-11-20T14:29:36.464Z,7.19
2022-11-20T14:32:03.962Z,7.23
2022-11-20T14:34:33.605Z,7.20
2022-11-20T14:37:06.881Z,7.17
2022-11-20T14:39:35.174Z,6.86
2022-11-20T14:42:03.268Z,7.11
2022-11-20T14:44:34.344Z,7.10
2022-11-20T14:47:05.160Z,7.02
2022-11-20T14:49:34.040Z,6.98
2022-11-20T14:52:21.480Z,6.85
2022-11-20T14:54:56.491Z,6.75
2022-11-20T14:57:26.280Z,6.70
2022-11-20T15:00:04.514Z,6.61
2022-11-20T15:02:32.334Z,6.56
2022-11-20T15:05:05.370Z,6.51
2022-11-20T15:07:35.629Z,6.46
2022-11-20T15:10:21.572Z,6.45
2022-11-20T15:12:55.681Z,6.46
2022-11-20T15:15:36.217Z,6.43
2022-11-20T15:18:03.366Z,6.41
2022-11-20T15:20:33.362Z,6.36
2022-11-20T15:23:00.538Z,6.34
2022-11-20T15:25:29.255Z,6.29
2022-11-20T15:27:59.135Z,6.24
2022-11-20T15:30:26.112Z,6.22
2022-11-20T15:32:53.092Z,6.15
2022-11-20T15:35:20.001Z,6.10
2022-11-20T15:37:46.845Z,6.06
2022-11-20T15:40:14.083Z,6.03
2022-11-20T15:43:00.798Z,6.02
2022-11-20T15:45:29.908Z,5.91
2022-11-20T15:47:56.849Z,5.90
2022-11-20T15:50:27.010Z,5.86
2022-11-20T15:52:53.767Z,5.77
2022-11-20T15:55:20.552Z,5.73
2022-11-20T15:57:47.354Z,5.65
2022-11-20T16:00:17.091Z,5.60
2022-11-20T16:02:47.526Z,5.57
2022-11-20T16:05:16.136Z,5.54
2022-11-20T16:07:42.934Z,5.52
2022-11-20T16:10:10.190Z,5.48
2022-11-20T16:12:55.781Z,5.47
2022-11-20T16:15:41.161Z,5.43
2022-11-20T16:18:10.479Z,5.36
2022-11-20T16:20:37.281Z,5.36
2022-11-20T16:23:07.817Z,5.33
2022-11-20T16:25:34.994Z,5.28
2022-11-20T16:28:01.986Z,5.25
2022-11-20T16:30:29.118Z,5.23
2022-11-20T16:32:56.100Z,5.25
2022-11-20T16:35:22.937Z,5.26
2022-11-20T16:37:49.666Z,5.26
2022-11-20T16:40:16.973Z,5.29
2022-11-20T16:42:44.363Z,5.32
2022-11-20T16:45:11.763Z,5.37
2022-11-20T16:47:39.260Z,5.40
2022-11-20T16:50:07.245Z,5.43
2022-11-20T16:52:34.884Z,5.43
2022-11-20T16:55:01.844Z,5.45
2022-11-20T16:57:31.399Z,5.44
2022-11-20T17:00:02.043Z,5.41
2022-11-20T17:02:31.463Z,5.18
2022-11-20T17:04:58.195Z,5.36
2022-11-20T17:07:25.392Z,5.36
2022-11-20T17:09:52.774Z,5.31
2022-11-20T17:12:19.648Z,5.27
2022-11-20T17:14:50.655Z,5.20
2022-11-20T17:17:19.066Z,5.14
2022-11-20T17:19:48.550Z,5.15
2022-11-20T17:22:15.349Z,5.17
2022-11-20T17:24:42.205Z,5.19
2022-11-20T17:27:09.005Z,5.20
2022-11-20T17:29:41.729Z,5.23
2022-11-20T17:32:08.938Z,5.24
2022-11-20T17:34:35.929Z,5.32
2022-11-20T17:37:03.476Z,5.36
2022-11-20T17:39:30.434Z,5.36
2022-11-20T17:42:16.163Z,5.40
2022-11-20T17:44:44.696Z,5.45
2022-11-20T17:47:12.071Z,5.51
2022-11-20T17:49:39.179Z,5.57
2022-11-20T17:52:06.441Z,5.58
2022-11-20T17:54:33.553Z,5.59
2022-11-20T17:57:18.748Z,5.56
2022-11-20T17:59:45.556Z,5.55
2022-11-20T18:02:14.688Z,5.50
2022-11-20T18:04:41.760Z,5.47
2022-11-20T18:07:09.091Z,5.43
2022-11-20T18:09:36.298Z,5.43
2022-11-20T18:12:03.390Z,5.43
2022-11-20T18:14:32.931Z,5.39
2022-11-20T18:17:12.130Z,5.39
2022-11-20T18:20:14.279Z,5.42
2022-11-20T18:22:35.483Z,5.45
2022-11-20T18:25:03.226Z,5.50
2022-11-20T18:27:30.478Z,5.58
2022-11-20T18:29:57.305Z,5.64
2022-11-20T18:32:24.203Z,5.71
2022-11-20T18:34:51.387Z,5.78
2022-11-20T18:37:18.712Z,5.83
2022-11-20T18:39:45.717Z,5.84
2022-11-20T18:42:33.712Z,5.85
2022-11-20T18:45:01.511Z,5.84
2022-11-20T18:47:36.196Z,5.87
2022-11-20T18:50:04.419Z,5.86
2022-11-20T18:52:34.175Z,5.83
2022-11-20T18:55:03.187Z,5.76
2022-11-20T18:57:31.866Z,5.69
2022-11-20T19:00:08.323Z,5.65
2022-11-20T19:02:41.155Z,5.61
2022-11-20T19:05:11.868Z,5.58
2022-11-20T19:07:38.751Z,5.55
2022-11-20T19:10:06.445Z,5.51
2022-11-20T19:12:33.452Z,5.50
2022-11-20T19:15:00.280Z,5.51
2022-11-20T19:17:27.352Z,5.55
2022-11-20T19:19:55.081Z,5.55
2022-11-20T19:22:22.294Z,5.56
2022-11-20T19:24:49.499Z,5.59
2022-11-20T19:27:16.888Z,5.64
2022-11-20T19:29:43.741Z,5.65
2022-11-20T19:32:10.610Z,5.65
2022-11-20T19:34:37.599Z,5.66
2022-11-20T19:37:05.268Z,5.70
2022-11-20T19:39:32.121Z,5.71
2022-11-20T19:41:58.908Z,5.75
2022-11-20T19:44:25.750Z,5.79
2022-11-20T19:46:52.830Z,5.79
2022-11-20T19:49:19.860Z,5.76
2022-11-20T19:51:49.337Z,5.75
2022-11-20T19:54:16.875Z,5.85
2022-11-20T19:56:45.583Z,5.87
2022-11-20T19:59:13.172Z,5.90
2022-11-20T20:01:40.494Z,5.94
2022-11-20T20:04:07.549Z,6.00
2022-11-20T20:06:36.468Z,6.04
2022-11-20T20:09:10.740Z,6.10
2022-11-20T20:11:38.470Z,6.17
2022-11-20T20:14:08.807Z,6.16
2022-11-20T20:16:36.283Z,6.15
2022-11-20T20:19:04.792Z,6.11
2022-11-20T20:21:33.521Z,6.08
2022-11-20T20:24:02.959Z,6.08
2022-11-20T20:26:31.885Z,6.09
2022-11-20T20:29:01.391Z,6.04
2022-11-20T20:31:29.998Z,6.03
2022-11-20T20:33:58.014Z,6.05
2022-11-20T20:36:27.250Z,6.06
2022-11-20T20:38:56.996Z,6.09
2022-11-20T20:41:25.885Z,6.10
2022-11-20T20:44:12.329Z,6.15
2022-11-20T20:46:39.613Z,6.16
2022-11-20T20:49:07.646Z,6.13
2022-11-20T20:51:35.215Z,6.12
2022-11-20T20:54:02.303Z,6.09
2022-11-20T20:56:30.461Z,6.02
2022-11-20T20:58:58.516Z,5.96
2022-11-20T21:01:28.712Z,5.85
2022-11-20T21:03:56.483Z,5.74
2022-11-20T21:06:23.336Z,5.64
2022-11-20T21:08:50.696Z,5.64
2022-11-20T21:11:19.746Z,5.62
2022-11-20T21:13:48.326Z,5.66
2022-11-20T21:16:16.570Z,5.66
2022-11-20T21:18:43.343Z,5.69
2022-11-20T21:21:31.873Z,5.69
2022-11-20T21:23:58.727Z,5.63
2022-11-20T21:26:25.681Z,5.53
2022-11-20T21:28:52.787Z,5.51
2022-11-20T21:31:22.392Z,5.48
2022-11-20T21:33:51.052Z,5.46
2022-11-20T21:36:20.565Z,5.38
2022-11-20T21:38:47.898Z,5.43
2022-11-20T21:41:16.138Z,5.47
2022-11-20T21:43:44.295Z,5.52
2022-11-20T21:46:13.653Z,5.53
2022-11-20T21:48:41.921Z,5.55
2022-11-20T21:51:10.227Z,5.57
2022-11-20T21:53:37.495Z,5.62
2022-11-20T21:56:06.116Z,5.66
2022-11-20T21:58:34.055Z,5.70
2022-11-20T22:01:07.084Z,5.76
2022-11-20T22:03:33.973Z,5.80
2022-11-20T22:06:04.162Z,5.85
2022-11-20T22:08:31.202Z,5.87
2022-11-20T22:11:06.978Z,5.86
2022-11-20T22:13:53.114Z,5.86
2022-11-20T22:16:19.994Z,5.87
2022-11-20T22:18:48.923Z,5.88
2022-11-20T22:21:17.598Z,5.89
2022-11-20T22:23:44.635Z,5.92
2022-11-20T22:26:23.512Z,5.87
2022-11-20T22:28:52.101Z,5.93
2022-11-20T22:31:21.940Z,5.94
2022-11-20T22:33:48.724Z,5.95
2022-11-20T22:36:21.029Z,5.91
2022-11-20T22:38:48.327Z,5.91
2022-11-20T22:41:30.069Z,5.85
2022-11-20T22:43:58.963Z,5.85
2022-11-20T22:46:27.810Z,5.82
2022-11-20T22:48:56.802Z,5.78
2022-11-20T22:51:25.956Z,5.79
2022-11-20T22:53:53.981Z,5.79
2022-11-20T22:56:21.230Z,5.78
2022-11-20T22:58:50.808Z,5.71
2022-11-20T23:01:26.536Z,5.69
2022-11-20T23:03:56.785Z,5.72
2022-11-20T23:06:24.181Z,5.75
2022-11-20T23:08:51.872Z,5.71
2022-11-20T23:11:27.572Z,5.73
2022-11-20T23:13:59.980Z,5.68
2022-11-20T23:16:29.195Z,5.69
2022-11-20T23:18:58.185Z,5.75
2022-11-20T23:21:25.398Z,5.75
2022-11-20T23:23:55.087Z,5.72
2022-11-20T23:26:24.310Z,5.75
2022-11-20T23:28:52.898Z,5.73
2022-11-20T23:31:19.771Z,5.73
2022-11-20T23:33:47.257Z,5.71
2022-11-20T23:36:14.400Z,5.71
2022-11-20T23:38:41.406Z,5.75
2022-11-20T23:41:08.608Z,5.76
2022-11-20T23:43:42.176Z,5.68
2022-11-20T23:46:13.709Z,5.69
2022-11-20T23:48:43.440Z,5.71
2022-11-20T23:51:10.480Z,5.75
2022-11-20T23:53:37.326Z,5.77
2022-11-20T23:56:05.494Z,5.76
2022-11-20T23:58:37.444Z,5.69
